createdAt,value
2022-10-07T07:56:38.496Z,13.4
2022-10-07T08:01:38.485Z,13.5
2022-10-07T08:06:38.512Z,13.6
2022-10-07T08:11:38.490Z,13.7
2022-10-07T08:16:38.415Z,13.9
2022-10-07T08:21:38.570Z,14
2022-10-07T08:26:38.493Z,14.1
2022-10-07T08:31:38.388Z,14.3
2022-10-07T08:36:38.413Z,14.4
2022-10-07T08:41:38.405Z,14.5
2022-10-07T08:46:38.424Z,14.6
2022-10-07T08:51:38.408Z,14.7
2022-10-07T08:56:38.414Z,14.9
2022-10-07T09:01:38.444Z,15
2022-10-07T09:06:38.396Z,15.1
2022-10-07T09:11:38.399Z,15.2
2022-10-07T09:16:38.428Z,15.3
2022-10-07T09:21:38.462Z,15.5
2022-10-07T09:26:38.402Z,15.7
2022-10-07T09:31:38.505Z,15.8
2022-10-07T09:36:38.415Z,16
2022-10-07T09:41:38.399Z,16.2
2022-10-07T09:46:38.499Z,16.3
2022-10-07T09:51:38.575Z,16.4
2022-10-07T09:56:38.436Z,16.5
2022-10-07T10:01:38.445Z,16.7
2022-10-07T10:06:38.415Z,16.9
2022-10-07T10:11:38.433Z,17
2022-10-07T10:16:38.450Z,17.1
2022-10-07T10:21:38.428Z,17.2
2022-10-07T10:26:38.408Z,17.3
2022-10-07T10:31:38.431Z,17.5
2022-10-07T10:36:38.521Z,17.5
2022-10-07T10:41:38.415Z,17.6
2022-10-07T10:46:38.636Z,17.8
2022-10-07T10:51:38.447Z,17.9
2022-10-07T10:56:38.583Z,18
2022-10-07T11:01:38.532Z,18.1
2022-10-07T11:06:38.426Z,18.3
2022-10-07T11:11:38.425Z,18.4
2022-10-07T11:16:38.508Z,18.4
2022-10-07T11:21:38.423Z,18.5
2022-10-07T11:26:38.424Z,18.6
2022-10-07T11:31:38.481Z,18.8
2022-10-07T11:36:38.450Z,18.9
2022-10-07T11:41:38.441Z,18.9
2022-10-07T11:46:38.653Z,19
2022-10-07T11:51:38.455Z,19.1
2022-10-07T11:56:38.437Z,19.2
2022-10-07T12:01:38.488Z,19.4
2022-10-07T12:06:38.458Z,19.4
2022-10-07T12:11:38.455Z,19.6
2022-10-07T12:16:38.518Z,19.7
2022-10-07T12:21:38.459Z,19.9
2022-10-07T12:26:38.411Z,19.9
2022-10-07T12:31:38.496Z,20
2022-10-07T12:36:38.438Z,20.2
2022-10-07T12:41:40.243Z,20.3
2022-10-07T12:46:38.785Z,20.4
2022-10-07T12:51:38.430Z,20.5
2022-10-07T12:56:38.447Z,20.6
2022-10-07T13:01:38.575Z,20.7
2022-10-07T13:06:38.436Z,20.8
2022-10-07T13:11:38.421Z,20.8
2022-10-07T13:16:38.617Z,20.8
2022-10-07T13:21:38.454Z,20.9
2022-10-07T13:26:38.423Z,21
2022-10-07T13:31:38.496Z,21.1
2022-10-07T13:36:38.460Z,21.2
2022-10-07T13:41:38.445Z,21.4
2022-10-07T13:46:38.663Z,21.5
2022-10-07T13:51:38.494Z,21.6
2022-10-07T13:56:38.464Z,21.6
2022-10-07T14:01:38.497Z,21.8
2022-10-07T14:06:38.451Z,21.8
2022-10-07T14:11:38.598Z,21.9
2022-10-07T14:16:38.567Z,22
2022-10-07T14:21:38.470Z,22.1
2022-10-07T14:26:38.443Z,22.2
2022-10-07T14:31:38.459Z,22.3
2022-10-07T14:36:38.470Z,22.4
2022-10-07T14:41:38.441Z,22.5
2022-10-07T14:46:38.710Z,22.4
2022-10-07T14:51:38.477Z,22.4
2022-10-07T14:56:38.470Z,22.3
2022-10-07T15:01:38.471Z,22.2
2022-10-07T15:06:38.460Z,22
2022-10-07T15:11:38.462Z,21.9
2022-10-07T15:16:38.696Z,21.7
2022-10-07T15:21:38.468Z,21.6
2022-10-07T15:26:38.455Z,21.5
2022-10-07T15:31:38.562Z,21.3
2022-10-07T15:36:38.474Z,21.1
2022-10-07T15:41:38.458Z,21
2022-10-07T15:46:38.597Z,20.8
2022-10-07T15:51:38.717Z,20.7
2022-10-07T15:56:38.499Z,20.6
2022-10-07T16:01:38.567Z,20.5
2022-10-07T16:06:38.475Z,20.4
2022-10-07T16:11:38.489Z,20.3
2022-10-07T16:16:38.499Z,20.1
2022-10-07T16:21:38.481Z,20
2022-10-07T16:26:38.596Z,19.9
2022-10-07T16:31:38.506Z,19.8
2022-10-07T16:36:42.222Z,19.8
2022-10-07T16:41:38.600Z,19.7
2022-10-07T16:46:38.865Z,19.5
2022-10-07T16:51:38.478Z,19.5
2022-10-07T16:56:38.571Z,19.4
2022-10-07T17:01:38.568Z,19.3
2022-10-07T17:06:38.479Z,19.3
2022-10-07T17:12:03.467Z,19.2
2022-10-07T17:17:52.731Z,19.1
2022-10-07T17:22:52.724Z,19
2022-10-07T17:27:52.713Z,18.9
2022-10-07T17:32:52.697Z,18.8
2022-10-07T17:37:52.703Z,18.8
2022-10-07T17:42:52.613Z,18.7
2022-10-07T17:47:52.633Z,18.6
2022-10-07T17:52:52.621Z,18.5
2022-10-07T17:57:52.620Z,18.3
2022-10-07T18:02:52.621Z,18.3
2022-10-07T18:07:52.647Z,18.2
2022-10-07T18:12:52.623Z,18.1
2022-10-07T18:17:52.617Z,18
2022-10-07T18:22:52.626Z,17.9
2022-10-07T18:27:52.641Z,17.8
2022-10-07T18:32:52.619Z,17.7
2022-10-07T18:37:52.615Z,17.6
2022-10-07T18:42:52.628Z,17.5
2022-10-07T18:47:52.737Z,17.4
2022-10-07T18:52:52.610Z,17.3
2022-10-07T18:57:52.611Z,17.3
2022-10-07T19:02:52.619Z,17.3
2022-10-07T19:07:52.646Z,17.2
2022-10-07T19:12:52.703Z,17.2
2022-10-07T19:17:52.716Z,17.2
2022-10-07T19:22:52.585Z,17.1
2022-10-07T19:27:52.628Z,17
2022-10-07T19:32:52.671Z,16.9
2022-10-07T19:37:52.610Z,16.9
2022-10-07T19:42:52.592Z,16.9
2022-10-07T19:47:52.669Z,16.8
2022-10-07T19:52:52.582Z,16.8
2022-10-07T19:57:52.597Z,16.7
2022-10-07T20:02:52.566Z,16.7
2022-10-07T20:07:52.704Z,16.6
2022-10-07T20:12:52.575Z,16.6
2022-10-07T20:17:52.598Z,16.5
2022-10-07T20:22:52.592Z,16.5
2022-10-07T20:27:52.612Z,16.5
2022-10-07T20:32:52.592Z,16.4
2022-10-07T20:37:52.578Z,16.3
2022-10-07T20:42:53.266Z,16.3
2022-10-07T20:47:52.610Z,16.2
2022-10-07T20:52:52.575Z,16.2
2022-10-07T20:57:52.581Z,16.1
2022-10-07T21:02:52.670Z,16.1
2022-10-07T21:07:54.768Z,16
2022-10-07T21:12:52.605Z,16
2022-10-07T21:17:52.690Z,15.9
2022-10-07T21:22:52.762Z,15.9
2022-10-07T21:27:52.622Z,15.8
2022-10-07T21:32:52.816Z,15.7
2022-10-07T21:37:52.587Z,15.7
2022-10-07T21:42:52.699Z,15.6
2022-10-07T21:47:52.617Z,15.6
2022-10-07T21:52:52.623Z,15.5
2022-10-07T21:57:52.599Z,15.5
2022-10-07T22:02:52.652Z,15.5
2022-10-07T22:07:52.633Z,15.4
2022-10-07T22:12:52.617Z,15.4
2022-10-07T22:17:52.610Z,15.4
2022-10-07T22:22:55.541Z,15.3
2022-10-07T22:27:52.638Z,15.3
2022-10-07T22:32:52.606Z,15.4
2022-10-07T22:37:52.641Z,15.4
2022-10-07T22:42:52.697Z,15.3
2022-10-07T22:47:52.641Z,15.3
2022-10-07T22:52:52.625Z,15.2
2022-10-07T22:57:52.618Z,15.1
2022-10-07T23:02:53.007Z,15
2022-10-07T23:07:52.640Z,14.9
2022-10-07T23:12:52.622Z,14.9
2022-10-07T23:17:52.613Z,14.8
2022-10-07T23:22:52.617Z,14.7
2022-10-07T23:27:52.633Z,14.6
2022-10-07T23:32:52.618Z,14.6
2022-10-07T23:37:52.607Z,14.6
2022-10-07T23:42:52.606Z,14.6
2022-10-07T23:47:52.642Z,14.5
2022-10-07T23:52:52.603Z,14.4
2022-10-07T23:57:52.604Z,14.4
